This is the latest recevied weather packets stored in our database for station/object WH6VH. If no packets are shown the sender has not sent any weather packets the latest 10 day(s).
| Time | Temp. | Humidity | Pressure | Rain* | Wind** | Luminosity | Snow |
|---|---|---|---|---|---|---|---|
| 1777779305 | 14.44° C | 26% | 1015.8 hPa | 0 mm | - | - | - |
| 1777778104 | 15° C | 27% | 1015.7 hPa | 0 mm | - | - | - |
| 1777777504 | 15° C | 27% | 1015.7 hPa | 0 mm | - | - | - |
| 1777777204 | 15.56° C | 27% | 1015.7 hPa | 0 mm | - | - | - |
| 1777776904 | 15.56° C | 26% | 1015.6 hPa | 0 mm | - | - | - |
| 1777774804 | 16.11° C | 25% | 1015.5 hPa | 0 mm | - | - | - |
| 1777772405 | 17.78° C | 18% | 1015.5 hPa | 0 mm | - | - | - |
| 1777771804 | 18.33° C | 17% | 1015.5 hPa | 0 mm | - | - | - |
| 1777770004 | 20° C | 14% | 1015.3 hPa | 0 mm | - | - | - |
| 1777768804 | 20° C | 13% | 1015.5 hPa | 0 mm | - | - | - |
| 1777768505 | 20.56° C | 13% | 1015.6 hPa | 0 mm | - | - | - |
| 1777765804 | 22.78° C | 10% | 1016 hPa | 0 mm | - | - | - |
| 1777764005 | 22.22° C | 11% | 1016.4 hPa | 0 mm | - | - | - |
| 1777762504 | 22.22° C | 11% | 1016.7 hPa | 0 mm | - | - | - |
| 1777759805 | 22.22° C | 8% | 1017.4 hPa | 0 mm | - | - | - |
| 1777757405 | 21.67° C | 10% | 1018.1 hPa | 0 mm | - | - | - |
| 1777755005 | 21.67° C | 13% | 1019 hPa | 0 mm | - | - | - |
| 1777753504 | 21.67° C | 14% | 1019.3 hPa | 0 mm | - | - | - |
| 1777750805 | 20° C | 16% | 1019.8 hPa | 0 mm | - | - | - |
| 1777750205 | 20° C | 18% | 1019.9 hPa | 0 mm | - | - | - |
| 1777749904 | 19.44° C | 16% | 1020.1 hPa | 0 mm | - | - | - |
| 1777749304 | 20° C | 16% | 1020.3 hPa | 0 mm | - | - | - |
| 1777746304 | 17.78° C | 19% | 1021.3 hPa | 0 mm | - | - | - |
| 1777745105 | 17.78° C | 18% | 1021.6 hPa | 0 mm | - | - | - |
| 1777744504 | 17.78° C | 19% | 1021.7 hPa | 0 mm | - | - | - |
* Rain latest hour (hover to see other rain measurements)
** Current wind speed in m/s (hover to see current wind gust speed)